www.hobby-wetter-faasend.de
Wetterdaten: aktuell Sonntag, 30.04.2017 18:30
Datum Zeit Temp. A. Temp. A. min Temp. A. max Feuchte A. Luftdruck Regen Wind Richtung Richtung Sonnenschein Taupunkt Windchill Windben
30.04.2017 18:30 20,2 C 20,2 C 20,4 C 29 % 1004,5 hPa 0,0 l/m 9,7 km/h (2 Bft) S 179 0 min 1,6 C 19,0 C 25,7 km/h (4 Bft)
30.04.2017 18:15 20,4 C 20,2 C 20,4 C 29 % 1004,7 hPa 0,0 l/m 5,9 km/h (2 Bft) S 171 0 min 1,8 C 20,4 C 17,7 km/h (3 Bft)
30.04.2017 18:00 20,2 C 20,1 C 20,4 C 29 % 1004,8 hPa 0,0 l/m 6,0 km/h (2 Bft) S-SO 151 0 min 1,6 C 20,2 C 19,3 km/h (3 Bft)
30.04.2017 17:45 20,4 C 20,3 C 20,4 C 28 % 1005,2 hPa 0,0 l/m 7,8 km/h (2 Bft) S 169 0 min 1,3 C 19,8 C 27,4 km/h (4 Bft)
30.04.2017 17:30 20,3 C 20,3 C 20,4 C 28 % 1005,2 hPa 0,0 l/m 7,8 km/h (2 Bft) O-SO 111 0 min 1,2 C 19,7 C 22,5 km/h (4 Bft)
30.04.2017 17:15 20,4 C 20,4 C 20,6 C 29 % 1005,5 hPa 0,0 l/m 8,3 km/h (2 Bft) S-SW 201 0 min 1,8 C 19,7 C 22,5 km/h (4 Bft)
30.04.2017 17:00 20,4 C 19,9 C 20,4 C 29 % 1005,7 hPa 0,0 l/m 6,2 km/h (2 Bft) S 169 0 min 1,8 C 20,4 C 27,4 km/h (4 Bft)
30.04.2017 16:45 19,9 C 19,9 C 20,4 C 29 % 1006,0 hPa 0,0 l/m 8,3 km/h (2 Bft) O-SO 123 0 min 1,3 C 19,1 C 22,5 km/h (4 Bft)
30.04.2017 16:30 20,4 C 20,4 C 20,6 C 28 % 1006,2 hPa 0,0 l/m 5,6 km/h (1 Bft) O-SO 114 0 min 1,3 C 20,4 C 20,9 km/h (4 Bft)
30.04.2017 16:15 20,6 C 20,4 C 20,6 C 28 % 1006,3 hPa 0,0 l/m 4,3 km/h (1 Bft) O-NO 71 0 min 1,5 C 20,6 C 14,5 km/h (3 Bft)
30.04.2017 16:00 20,5 C 20,3 C 20,5 C 28 % 1006,6 hPa 0,0 l/m 6,5 km/h (2 Bft) O-NO 58 0 min 1,4 C 20,5 C 19,3 km/h (3 Bft)
30.04.2017 15:45 20,4 C 20,3 C 20,4 C 28 % 1006,6 hPa 0,0 l/m 7,0 km/h (2 Bft) O-SO 119 0 min 1,3 C 20,2 C 24,1 km/h (4 Bft)
30.04.2017 15:30 20,4 C 20,1 C 20,4 C 28 % 1006,9 hPa 0,0 l/m 7,0 km/h (2 Bft) O-SO 113 0 min 1,3 C 20,2 C 22,5 km/h (4 Bft)
30.04.2017 15:15 20,1 C 19,8 C 20,1 C 30 % 1007,2 hPa 0,0 l/m 8,3 km/h (2 Bft) O 87 0 min 2,0 C 19,3 C 27,4 km/h (4 Bft)
30.04.2017 15:00 19,8 C 19,4 C 19,8 C 30 % 1007,3 hPa 0,0 l/m 7,6 km/h (2 Bft) S-SO 166 0 min 1,7 C 19,3 C 20,9 km/h (4 Bft)
30.04.2017 14:45 19,4 C 19,4 C 19,5 C 30 % 1007,6 hPa 0,0 l/m 7,2 km/h (2 Bft) O-SO 117 0 min 1,4 C 19,1 C 20,9 km/h (4 Bft)
30.04.2017 14:30 19,5 C 19,2 C 19,6 C 30 % 1008,0 hPa 0,0 l/m 7,8 km/h (2 Bft) O-SO 107 0 min 1,5 C 18,9 C 25,7 km/h (4 Bft)
30.04.2017 14:15 19,3 C 19,3 C 19,4 C 31 % 1008,1 hPa 0,0 l/m 7,2 km/h (2 Bft) O 91 0 min 1,8 C 19,0 C 22,5 km/h (4 Bft)
30.04.2017 14:00 19,3 C 18,8 C 19,3 C 31 % 1008,3 hPa 0,0 l/m 6,3 km/h (2 Bft) SO 132 0 min 1,8 C 19,3 C 20,9 km/h (4 Bft)
30.04.2017 13:45 18,8 C 18,4 C 18,8 C 32 % 1008,6 hPa 0,0 l/m 6,2 km/h (2 Bft) O-SO 110 0 min 1,8 C 18,8 C 22,5 km/h (4 Bft)
30.04.2017 13:30 18,4 C 18,3 C 18,6 C 32 % 1008,8 hPa 0,0 l/m 6,5 km/h (2 Bft) S-SO 148 0 min 1,4 C 18,4 C 19,3 km/h (3 Bft)
30.04.2017 13:15 18,6 C 18,4 C 18,7 C 32 % 1009,1 hPa 0,0 l/m 6,7 km/h (2 Bft) O-SO 105 0 min 1,6 C 18,5 C 22,5 km/h (4 Bft)
30.04.2017 13:00 18,4 C 18,0 C 18,4 C 34 % 1009,1 hPa 0,0 l/m 6,1 km/h (2 Bft) S-SW 196 0 min 2,3 C 18,4 C 16,1 km/h (3 Bft)
30.04.2017 12:45 18,0 C 17,8 C 18,1 C 35 % 1009,5 hPa 0,0 l/m 4,6 km/h (1 Bft) O 96 0 min 2,3 C 18,0 C 17,7 km/h (3 Bft)
30.04.2017 12:30 18,1 C 17,6 C 18,1 C 34 % 1009,7 hPa 0,0 l/m 5,4 km/h (1 Bft) O-SO 120 0 min 2,0 C 18,1 C 20,9 km/h (4 Bft)
30.04.2017 12:15 17,6 C 16,8 C 17,6 C 36 % 1010,0 hPa 0,0 l/m 5,3 km/h (1 Bft) S-SO 151 0 min 2,4 C 17,6 C 25,7 km/h (4 Bft)
30.04.2017 12:00 16,8 C 16,6 C 16,8 C 38 % 1010,2 hPa 0,0 l/m 6,1 km/h (2 Bft) O-NO 71 0 min 2,4 C 16,8 C 20,9 km/h (4 Bft)
30.04.2017 11:45 16,7 C 16,3 C 16,7 C 37 % 1010,4 hPa 0,0 l/m 6,7 km/h (2 Bft) O-NO 65 0 min 1,9 C 16,6 C 19,3 km/h (3 Bft)
30.04.2017 11:30 16,3 C 15,8 C 16,3 C 39 % 1010,5 hPa 0,0 l/m 6,0 km/h (2 Bft) S-SW 198 0 min 2,3 C 16,3 C 19,3 km/h (3 Bft)
30.04.2017 11:15 15,8 C 15,3 C 15,8 C 41 % 1010,9 hPa 0,0 l/m 5,0 km/h (1 Bft) O 98 0 min 2,6 C 15,8 C 16,1 km/h (3 Bft)
30.04.2017 11:00 15,3 C 14,8 C 15,3 C 43 % 1011,0 hPa 0,0 l/m 6,3 km/h (2 Bft) NO 39 0 min 2,8 C 15,3 C 16,1 km/h (3 Bft)
30.04.2017 10:45 14,8 C 14,4 C 14,8 C 44 % 1011,3 hPa 0,0 l/m 5,7 km/h (1 Bft) O-SO 103 0 min 2,7 C 14,8 C 14,5 km/h (3 Bft)
30.04.2017 10:30 14,4 C 14,2 C 14,4 C 44 % 1011,4 hPa 0,0 l/m 5,4 km/h (1 Bft) O-SO 121 0 min 2,3 C 14,4 C 19,3 km/h (3 Bft)
30.04.2017 10:16 14,2 C 13,8 C 14,2 C 45 % 1011,7 hPa 0,0 l/m 4,6 km/h (1 Bft) SO 127 0 min 2,4 C 14,2 C 17,7 km/h (3 Bft)
30.04.2017 10:00 13,8 C 13,0 C 13,8 C 46 % 1011,9 hPa 0,0 l/m 4,1 km/h (1 Bft) SO 130 0 min 2,4 C 13,8 C 19,3 km/h (3 Bft)
30.04.2017 09:45 13,0 C 12,3 C 13,0 C 49 % 1012,1 hPa 0,0 l/m 3,6 km/h (1 Bft) O 95 0 min 2,5 C 13,0 C 17,7 km/h (3 Bft)
30.04.2017 09:30 12,3 C 11,4 C 12,3 C 53 % 1012,2 hPa 0,0 l/m 2,0 km/h (1 Bft) O 97 0 min 3,0 C 12,3 C 11,3 km/h (2 Bft)
30.04.2017 09:15 11,4 C 10,9 C 11,4 C 56 % 1012,3 hPa 0,0 l/m 3,1 km/h (1 Bft) O-SO 109 0 min 2,9 C 11,4 C 12,9 km/h (3 Bft)
30.04.2017 09:00 10,9 C 10,3 C 10,9 C 56 % 1012,5 hPa 0,0 l/m 3,2 km/h (1 Bft) O-NO 78 0 min 2,5 C 10,9 C 9,7 km/h (2 Bft)
30.04.2017 08:45 10,4 C 9,4 C 10,4 C 58 % 1012,8 hPa 0,0 l/m 1,9 km/h (1 Bft) S-SO 161 0 min 2,5 C 10,4 C 8,0 km/h (2 Bft)
30.04.2017 08:30 9,4 C 8,6 C 9,4 C 62 % 1012,8 hPa 0,0 l/m 1,8 km/h (1 Bft) SO 141 0 min 2,5 C 9,4 C 11,3 km/h (2 Bft)
30.04.2017 08:16 8,6 C 7,1 C 8,6 C 65 % 1012,9 hPa 0,0 l/m 1,7 km/h (1 Bft) O 92 0 min 2,4 C 8,6 C 8,0 km/h (2 Bft)
30.04.2017 08:00 7,1 C 5,4 C 7,1 C 72 % 1013,1 hPa 0,0 l/m 0,3 km/h (0 Bft) O 85 0 min 2,4 C 7,1 C 4,8 km/h (1 Bft)
30.04.2017 07:45 5,4 C 4,0 C 5,4 C 78 % 1013,2 hPa 0,0 l/m 0,7 km/h (0 Bft) S 187 0 min 1,9 C 5,4 C 6,4 km/h (2 Bft)
30.04.2017 07:30 4,0 C 3,2 C 4,0 C 82 % 1013,0 hPa 0,0 l/m 0,0 km/h (0 Bft) SW 214 0 min 1,2 C 4,0 C 1,6 km/h (1 Bft)
30.04.2017 07:15 3,2 C 2,8 C 3,2 C 84 % 1013,1 hPa 0,0 l/m 0,0 km/h (0 Bft) S-SW 211 0 min 0,8 C 3,2 C 1,6 km/h (1 Bft)
30.04.2017 07:00 2,8 C 2,4 C 2,8 C 85 % 1013,2 hPa 0,0 l/m 0,2 km/h (0 Bft) S-SW 199 0 min 0,5 C 2,8 C 3,2 km/h (1 Bft)
30.04.2017 06:45 2,4 C 2,2 C 2,4 C 85 % 1013,1 hPa 0,0 l/m 0,0 km/h (0 Bft) S-SW 199 0 min 0,1 C 2,4 C 0,0 km/h (0 Bft)
30.04.2017 06:30 2,2 C 2,1 C 2,2 C 85 % 1013,3 hPa 0,0 l/m 0,0 km/h (0 Bft) S-SW 199 0 min -0,1 C 2,2 C 1,6 km/h (1 Bft)
30.04.2017 06:15 2,2 C 2,2 C 2,4 C 83 % 1013,2 hPa 0,0 l/m 0,0 km/h (0 Bft) S-SW 199 0 min -0,4 C 2,2 C 0,0 km/h (0 Bft)
30.04.2017 06:00 2,4 C 2,4 C 2,7 C 82 % 1013,2 hPa 0,0 l/m 0,0 km/h (0 Bft) S-SW 199 0 min -0,4 C 2,4 C 0,0 km/h (0 Bft)
30.04.2017 05:45 2,7 C 2,7 C 3,1 C 81 % 1013,3 hPa 0,0 l/m 0,0 km/h (0 Bft) S-SW 199 0 min -0,2 C 2,7 C 0,0 km/h (0 Bft)
30.04.2017 05:30 3,1 C 3,1 C 3,6 C 78 % 1013,3 hPa 0,0 l/m 0,0 km/h (0 Bft) S-SW 199 0 min -0,4 C 3,1 C 0,0 km/h (0 Bft)
30.04.2017 05:15 3,6 C 3,6 C 4,1 C 77 % 1013,4 hPa 0,0 l/m 0,0 km/h (0 Bft) S-SW 199 0 min -0,0 C 3,6 C 0,0 km/h (0 Bft)
30.04.2017 05:00 4,1 C 4,1 C 4,5 C 76 % 1013,4 hPa 0,0 l/m 0,0 km/h (0 Bft) S-SW 199 0 min 0,3 C 4,1 C 0,0 km/h (0 Bft)
30.04.2017 04:45 4,5 C 4,5 C 4,8 C 75 % 1013,4 hPa 0,0 l/m 0,0 km/h (0 Bft) S-SW 199 0 min 0,5 C 4,5 C 0,0 km/h (0 Bft)
30.04.2017 04:30 4,8 C 4,8 C 5,2 C 75 % 1013,5 hPa 0,0 l/m 0,2 km/h (0 Bft) S-SW 199 0 min 0,8 C 4,8 C 3,2 km/h (1 Bft)
30.04.2017 04:15 5,2 C 5,2 C 5,4 C 73 % 1013,5 hPa 0,0 l/m 0,1 km/h (0 Bft) S-SW 199 0 min 0,8 C 5,2 C 1,6 km/h (1 Bft)
30.04.2017 04:00 5,4 C 5,4 C 5,6 C 73 % 1013,5 hPa 0,0 l/m 0,2 km/h (0 Bft) S-SW 199 0 min 1,0 C 5,4 C 3,2 km/h (1 Bft)
30.04.2017 03:45 5,6 C 5,6 C 5,7 C 73 % 1013,5 hPa 0,0 l/m 0,2 km/h (0 Bft) S-SW 199 0 min 1,2 C 5,6 C 3,2 km/h (1 Bft)
30.04.2017 03:30 5,7 C 5,3 C 5,7 C 73 % 1013,6 hPa 0,0 l/m 0,7 km/h (0 Bft) S-SW 199 0 min 1,2 C 5,7 C 4,8 km/h (1 Bft)
30.04.2017 03:15 5,3 C 4,6 C 5,3 C 76 % 1013,6 hPa 0,0 l/m 1,2 km/h (1 Bft) S-SW 199 0 min 1,4 C 5,3 C 6,4 km/h (2 Bft)
30.04.2017 03:00 4,6 C 3,9 C 4,6 C 79 % 1013,7 hPa 0,0 l/m 0,7 km/h (0 Bft) S-SW 198 0 min 1,3 C 4,6 C 6,4 km/h (2 Bft)
30.04.2017 02:45 3,9 C 3,3 C 3,9 C 82 % 1013,8 hPa 0,0 l/m 0,1 km/h (0 Bft) SO 130 0 min 1,1 C 3,9 C 3,2 km/h (1 Bft)
30.04.2017 02:30 3,3 C 3,1 C 3,3 C 84 % 1013,9 hPa 0,0 l/m 0,0 km/h (0 Bft) SO 130 0 min 0,9 C 3,3 C 1,6 km/h (1 Bft)
30.04.2017 02:15 3,1 C 3,1 C 3,2 C 83 % 1013,9 hPa 0,0 l/m 0,0 km/h (0 Bft) SO 130 0 min 0,5 C 3,1 C 0,0 km/h (0 Bft)
30.04.2017 02:00 3,2 C 3,2 C 3,3 C 82 % 1014,0 hPa 0,0 l/m 0,0 km/h (0 Bft) SO 130 0 min 0,4 C 3,2 C 0,0 km/h (0 Bft)
30.04.2017 01:45 3,3 C 3,3 C 3,4 C 82 % 1014,1 hPa 0,0 l/m 0,0 km/h (0 Bft) SO 130 0 min 0,5 C 3,3 C 0,0 km/h (0 Bft)
30.04.2017 01:30 3,4 C 3,4 C 3,6 C 81 % 1014,2 hPa 0,0 l/m 0,0 km/h (0 Bft) SO 130 0 min 0,5 C 3,4 C 0,0 km/h (0 Bft)
30.04.2017 01:15 3,6 C 3,6 C 3,6 C 81 % 1014,3 hPa 0,0 l/m 0,0 km/h (0 Bft) SO 130 0 min 0,7 C 3,6 C 0,0 km/h (0 Bft)
30.04.2017 01:00 3,6 C 3,6 C 3,6 C 81 % 1014,4 hPa 0,0 l/m 0,0 km/h (0 Bft) SO 130 0 min 0,7 C 3,6 C 1,6 km/h (1 Bft)
30.04.2017 00:45 3,6 C 3,6 C 3,8 C 80 % 1014,5 hPa 0,0 l/m 0,0 km/h (0 Bft) SO 130 0 min 0,5 C 3,6 C 0,0 km/h (0 Bft)
30.04.2017 00:30 3,8 C 3,8 C 4,0 C 80 % 1014,5 hPa 0,0 l/m 0,0 km/h (0 Bft) SO 130 0 min 0,7 C 3,8 C 0,0 km/h (0 Bft)
30.04.2017 00:15 4,0 C 4,0 C 4,3 C 78 % 1014,5 hPa 0,0 l/m 0,0 km/h (0 Bft) SO 130 0 min 0,5 C 4,0 C 0,0 km/h (0 Bft)
30.04.2017 00:00 4,3 C 4,3 C 4,6 C 77 % 1014,6 hPa 0,0 l/m 0,0 km/h (0 Bft) SO 130 0 min 0,6 C 4,3 C 1,6 km/h (1 Bft)
29.04.2017 23:45 4,6 C 4,6 C 5,1 C 76 % 1014,6 hPa 0,0 l/m 0,0 km/h (0 Bft) SO 130 0 min 0,7 C 4,6 C 0,0 km/h (0 Bft)
29.04.2017 23:30 5,1 C 5,1 C 5,4 C 74 % 1014,7 hPa 0,0 l/m 0,0 km/h (0 Bft) SO 130 0 min 0,9 C 5,1 C 0,0 km/h (0 Bft)
29.04.2017 23:15 5,4 C 5,4 C 5,8 C 74 % 1014,8 hPa 0,0 l/m 0,0 km/h (0 Bft) SO 130 0 min 1,1 C 5,4 C 0,0 km/h (0 Bft)
29.04.2017 23:00 5,8 C 5,8 C 6,2 C 72 % 1014,7 hPa 0,0 l/m 0,0 km/h (0 Bft) SO 130 0 min 1,2 C 5,8 C 0,0 km/h (0 Bft)
29.04.2017 22:45 6,2 C 6,1 C 6,6 C 72 % 1014,7 hPa 0,0 l/m 0,2 km/h (0 Bft) SO 130 0 min 1,5 C 6,2 C 3,2 km/h (1 Bft)
29.04.2017 22:30 6,6 C 6,6 C 6,9 C 70 % 1014,8 hPa 0,0 l/m 0,0 km/h (0 Bft) SO 130 0 min 1,5 C 6,6 C 0,0 km/h (0 Bft)
29.04.2017 22:15 6,9 C 6,9 C 7,4 C 69 % 1014,9 hPa 0,0 l/m 0,0 km/h (0 Bft) SO 130 0 min 1,6 C 6,9 C 1,6 km/h (1 Bft)
29.04.2017 22:00 7,4 C 7,4 C 8,1 C 68 % 1014,9 hPa 0,0 l/m 0,1 km/h (0 Bft) SO 130 0 min 1,9 C 7,4 C 1,6 km/h (1 Bft)
29.04.2017 21:45 8,1 C 8,1 C 8,8 C 66 % 1014,9 hPa 0,0 l/m 0,0 km/h (0 Bft) SO 130 0 min 2,1 C 8,1 C 1,6 km/h (1 Bft)
29.04.2017 21:30 8,8 C 8,8 C 9,6 C 63 % 1014,9 hPa 0,0 l/m 0,0 km/h (0 Bft) SO 130 0 min 2,2 C 8,8 C 1,6 km/h (1 Bft)
29.04.2017 21:15 9,6 C 9,6 C 10,6 C 60 % 1014,8 hPa 0,0 l/m 0,0 km/h (0 Bft) SO 130 0 min 2,2 C 9,6 C 1,6 km/h (1 Bft)
29.04.2017 21:00 10,6 C 10,6 C 11,5 C 57 % 1014,7 hPa 0,0 l/m 0,0 km/h (0 Bft) SO 130 0 min 2,4 C 10,6 C 0,0 km/h (0 Bft)
29.04.2017 20:45 11,5 C 11,5 C 12,4 C 53 % 1014,8 hPa 0,0 l/m 0,0 km/h (0 Bft) SO 130 0 min 2,3 C 11,5 C 1,6 km/h (1 Bft)
29.04.2017 20:30 12,4 C 12,4 C 13,2 C 48 % 1014,6 hPa 0,0 l/m 0,0 km/h (0 Bft) SO 130 0 min 1,7 C 12,4 C 0,0 km/h (0 Bft)
29.04.2017 20:15 13,2 C 13,2 C 13,7 C 46 % 1014,7 hPa 0,0 l/m 0,0 km/h (0 Bft) SO 130 0 min 1,8 C 13,2 C 1,6 km/h (1 Bft)
29.04.2017 20:00 13,7 C 13,7 C 14,1 C 43 % 1014,8 hPa 0,0 l/m 0,2 km/h (0 Bft) SO 130 0 min 1,4 C 13,7 C 4,8 km/h (1 Bft)
29.04.2017 19:45 14,1 C 14,1 C 14,5 C 42 % 1014,8 hPa 0,0 l/m 0,9 km/h (0 Bft) S 183 0 min 1,4 C 14,1 C 6,4 km/h (2 Bft)
29.04.2017 19:30 14,5 C 14,5 C 15,0 C 40 % 1014,7 hPa 0,0 l/m 1,4 km/h (1 Bft) SO 125 0 min 1,1 C 14,5 C 9,7 km/h (2 Bft)
29.04.2017 19:15 15,0 C 15,0 C 15,2 C 41 % 1014,8 hPa 0,0 l/m 0,5 km/h (0 Bft) S 179 0 min 1,9 C 15,0 C 6,4 km/h (2 Bft)
29.04.2017 19:00 15,2 C 15,2 C 15,3 C 40 % 1014,9 hPa 0,0 l/m 1,7 km/h (1 Bft) O-NO 59 0 min 1,7 C 15,2 C 8,0 km/h (2 Bft)
_ Min-Zeit 06:30 06:30 06:30 15:30 18:30 - 20:15 - - - 06:15 06:15 20:30
Minimum _ 2,1 C 2,1 C 2,2 C 28 % 1004,5 hPa - 0,0 km/h (0 Bft) - - - -0,4 C 2,2 C 0,0 km/h (0 Bft)
_ Max-Zeit 16:15 16:15 16:15 06:30 19:00 19:00 18:30 - - 19:00 09:30 16:15 15:15
Maximum _ 20,6 C 20,4 C 20,6 C 85 % 1014,9 hPa 0,0 l/m 9,7 km/h
S (2 Bft)
- - 0 min 3,0 C 20,6 C 27,4 km/h
S (4 Bft)
Durchschnitt _ 11,3 C 11,1 C 11,5 C 55 % 1012,0 hPa #0,0 l/m 2,6 km/h (1 Bft) O-SO - #0 min. 1,5 C 11,2 C 9,5 km/h (2 Bft)